Time;durP1;ratioP1;P1;durP2;ratioP2;P2;SDS_P1;SDS_P2;PMS_P1;PMS_P2;Temp;Humidity;BMP_temperature;BMP_pressure;BME280_temperature;BME280_humidity;BME280_pressure;Samples;Min_cycle;Max_cycle;Signal;HPM_P1;HPM_P2
2022/04/30 00:02:49;;;;;;;18.7;23.8;;;;;;;-133;84.2;79670;;;;
2022/04/30 00:13:49;;;;;;;18.1;20.4;;;;;;;-133;84.1;79710;;;;
2022/04/30 00:23:49;;;;;;;18.1;20.4;;;;;;;-133;86.2;79730;;;;
2022/04/30 00:34:49;;;;;;;18.1;20.4;;;;;;;-133;87.1;79750;;;;
2022/04/30 00:44:49;;;;;;;24.2;31.2;;;;;;;-133;89.1;79760;;;;
2022/04/30 00:55:49;;;;;;;24.2;31.2;;;;;;;-133;89.2;79780;;;;
2022/04/30 01:05:50;;;;;;;24.2;31.2;;;;;;;-133;92.1;79790;;;;
2022/04/30 01:15:50;;;;;;;26.1;32.3;;;;;;;-133;92.8;79780;;;;
2022/04/30 01:26:49;;;;;;;26.1;32.3;;;;;;;-133;91.5;79800;;;;
2022/04/30 01:37:50;;;;;;;26.1;32.3;;;;;;;-133;90.3;79820;;;;
2022/04/30 01:47:49;;;;;;;20.5;24.8;;;;;;;-133;93;79830;;;;
2022/04/30 01:58:50;;;;;;;20.5;24.8;;;;;;;-133;91.6;79850;;;;
2022/04/30 02:09:51;;;;;;;19.1;24.5;;;;;;;-133;93.1;79850;;;;
2022/04/30 02:20:53;;;;;;;19.1;24.5;;;;;;;-133;91.8;79870;;;;
2022/04/30 02:30:49;;;;;;;19.1;24.5;;;;;;;-133;92.5;79870;;;;
2022/04/30 02:40:49;;;;;;;17.1;20.1;;;;;;;-133;94.3;79870;;;;
2022/04/30 02:51:49;;;;;;;17.1;20.1;;;;;;;-133;92.5;79880;;;;
2022/04/30 03:01:49;;;;;;;17.1;20.1;;;;;;;-133;92.5;79890;;;;
2022/04/30 03:12:49;;;;;;;18.4;23.3;;;;;;;-133;93.5;79900;;;;
2022/04/30 03:23:51;;;;;;;18.4;23.3;;;;;;;-133;93.3;79910;;;;
2022/04/30 03:34:49;;;;;;;18.4;23.3;;;;;;;-133;93.4;79910;;;;
2022/04/30 03:44:49;;;;;;;20.4;24.7;;;;;;;-133;94.7;79900;;;;
2022/04/30 03:55:49;;;;;;;20.4;24.7;;;;;;;-133;95.2;79880;;;;
2022/04/30 04:06:49;;;;;;;20.4;24.7;;;;;;;-133;94.7;79840;;;;
2022/04/30 04:17:53;;;;;;;20.5;24.4;;;;;;;-133;94;79810;;;;
2022/04/30 04:27:53;;;;;;;20.5;24.4;;;;;;;-133;93.8;79760;;;;
2022/04/30 04:37:49;;;;;;;20.5;24.4;;;;;;;-133;93;79710;;;;
2022/04/30 04:47:49;;;;;;;21.6;26.6;;;;;;;-133;92.6;79660;;;;
2022/04/30 04:58:49;;;;;;;21.6;26.6;;;;;;;-133;91.1;79570;;;;
2022/04/30 05:08:49;;;;;;;21.6;26.6;;;;;;;-133;88.9;79500;;;;
2022/04/30 05:19:49;;;;;;;22.5;26.4;;;;;;;-133;86.3;79420;;;;
2022/04/30 05:29:49;;;;;;;22.5;26.4;;;;;;;-133;82.5;79340;;;;
2022/04/30 05:40:49;;;;;;;20.5;23.7;;;;;;;-133;81.1;79270;;;;
2022/04/30 05:50:51;;;;;;;20.5;23.7;;;;;;;-133;80;79200;;;;
2022/04/30 06:01:49;;;;;;;20.5;23.7;;;;;;;-133;78.2;79110;;;;
2022/04/30 06:11:49;;;;;;;19.7;27.7;;;;;;;-133;76.9;79020;;;;
2022/04/30 06:22:49;;;;;;;19.7;27.7;;;;;;;-133;73.4;78950;;;;
2022/04/30 06:33:52;;;;;;;19.7;27.7;;;;;;;-133;69.8;78890;;;;
2022/04/30 06:44:51;;;;;;;14.8;20.1;;;;;;;-133;67.4;78830;;;;
2022/04/30 07:05:49;;;;;;;14.8;20.1;;;;;;;-133;63.3;78750;;;;
2022/04/30 07:15:49;;;;;;;13.2;16.6;;;;;;;-133;61.1;78630;;;;
2022/04/30 07:26:49;;;;;;;13.2;16.6;;;;;;;-133;57.2;78570;;;;
2022/04/30 07:37:49;;;;;;;13.2;16.6;;;;;;;-133;56;78490;;;;
2022/04/30 07:48:49;;;;;;;12.1;15;;;;;;;-133;52.9;78480;;;;
2022/04/30 07:58:49;;;;;;;12.1;15;;;;;;;-133;50.4;78430;;;;
2022/04/30 08:08:49;;;;;;;10.6;14.9;;;;;;;-133;50.3;78340;;;;
2022/04/30 08:18:49;;;;;;;10.6;14.9;;;;;;;-133;44.8;78330;;;;
2022/04/30 08:29:49;;;;;;;10.6;14.9;;;;;;;-133;42.3;78280;;;;
2022/04/30 08:40:49;;;;;;;8.2;13.3;;;;;;;-133;42.8;78330;;;;
2022/04/30 08:50:49;;;;;;;8.2;13.3;;;;;;;-133;42.8;78250;;;;
2022/04/30 09:00:49;;;;;;;8.2;13.3;;;;;;;-133;41.5;78190;;;;
2022/04/30 09:11:49;;;;;;;8.1;12.1;;;;;;;-133;40.8;78190;;;;
2022/04/30 09:22:49;;;;;;;8.1;12.1;;;;;;;-133;41.6;78180;;;;
2022/04/30 09:33:49;;;;;;;8.1;12.1;;;;;;;-133;41.4;78170;;;;
2022/04/30 09:44:49;;;;;;;;;;;;;;;;;;;;;
2022/04/30 09:54:50;;;;;;;7.5;12.9;;;;;;;-133;41.5;78090;;;;
2022/04/30 10:04:49;;;;;;;7.5;12.9;;;;;;;-133;41.2;78070;;;;
2022/04/30 10:14:49;;;;;;;6.1;9.7;;;;;;;-133;40.4;78040;;;;
2022/04/30 10:24:49;;;;;;;6.1;9.7;;;;;;;-133;38.4;78000;;;;
2022/04/30 10:35:49;;;;;;;6.1;9.7;;;;;;;-133;36.3;78000;;;;
2022/04/30 10:46:49;;;;;;;6;9.9;;;;;;;-133;36.2;77910;;;;
2022/04/30 10:56:49;;;;;;;6;9.9;;;;;;;-133;35.4;77910;;;;
2022/04/30 11:06:50;;;;;;;6;9.9;;;;;;;-133;37.5;77970;;;;
2022/04/30 11:16:49;;;;;;;5.9;10.8;;;;;;;-133;36.3;77920;;;;
2022/04/30 11:26:49;;;;;;;5.9;10.8;;;;;;;-133;36.1;77860;;;;
2022/04/30 11:36:49;;;;;;;5.9;10.8;;;;;;;-133;37.7;77830;;;;
2022/04/30 11:47:49;;;;;;;6.7;10;;;;;;;-133;36.5;77760;;;;
2022/04/30 11:57:49;;;;;;;6.7;10;;;;;;;-133;35;77800;;;;
2022/04/30 12:07:49;;;;;;;6.7;10;;;;;;;-133;34.1;77750;;;;
2022/04/30 12:28:50;;;;;;;6.6;11.7;;;;;;;-133;34.9;77650;;;;
2022/04/30 12:39:49;;;;;;;6.1;11.3;;;;;;;-133;31.9;77620;;;;
2022/04/30 12:49:49;;;;;;;6.1;11.3;;;;;;;-133;34;77710;;;;
2022/04/30 12:59:53;;;;;;;6.1;11.3;;;;;;;-133;33.2;77720;;;;
2022/04/30 13:19:51;;;;;;;5.6;8.3;;;;;;;-133;34;77780;;;;
2022/04/30 13:30:49;;;;;;;5.6;8.3;;;;;;;-133;33.2;77750;;;;
2022/04/30 13:40:50;;;;;;;5.1;8.8;;;;;;;-133;33.8;77760;;;;
2022/04/30 13:50:51;;;;;;;5.1;8.8;;;;;;;-133;34;77740;;;;
2022/04/30 14:01:49;;;;;;;5.1;8.8;;;;;;;-133;36;77770;;;;
2022/04/30 14:11:49;;;;;;;5.5;10.9;;;;;;;-133;36.7;77810;;;;
2022/04/30 14:21:49;;;;;;;5.5;10.9;;;;;;;-133;36.1;77650;;;;
2022/04/30 14:32:49;;;;;;;5.5;10.9;;;;;;;-133;33.6;77520;;;;
2022/04/30 14:43:49;;;;;;;6.4;11.2;;;;;;;-133;34.8;77640;;;;
2022/04/30 14:53:49;;;;;;;6.4;11.2;;;;;;;-133;35.9;77630;;;;
2022/04/30 15:03:49;;;;;;;6.4;11.2;;;;;;;-133;35;77690;;;;
2022/04/30 15:14:49;;;;;;;6.5;10.4;;;;;;;-133;35.1;77680;;;;
2022/04/30 15:24:49;;;;;;;6.5;10.4;;;;;;;-133;34.1;77650;;;;
2022/04/30 15:34:51;;;;;;;6.5;10.4;;;;;;;-133;32;77490;;;;
2022/04/30 15:45:49;;;;;;;17.3;23;;;;;;;-133;31.1;77340;;;;
2022/04/30 15:55:49;;;;;;;17.3;23;;;;;;;-133;31.2;77500;;;;
2022/04/30 16:05:49;;;;;;;17.3;23;;;;;;;-133;31.8;77380;;;;
2022/04/30 16:16:49;;;;;;;12.5;19.8;;;;;;;-133;32.7;77550;;;;
2022/04/30 16:27:49;;;;;;;12.5;19.8;;;;;;;-133;36.2;77680;;;;
2022/04/30 16:38:49;;;;;;;9.2;16.4;;;;;;;-133;36.2;77740;;;;
2022/04/30 16:49:49;;;;;;;9.2;16.4;;;;;;;-133;37.1;77790;;;;
2022/04/30 17:00:50;;;;;;;9.2;16.4;;;;;;;-133;38.6;77870;;;;
2022/04/30 17:10:49;;;;;;;8.7;14.8;;;;;;;-133;39.8;77920;;;;
2022/04/30 17:21:49;;;;;;;8.7;14.8;;;;;;;-133;41.4;78000;;;;
2022/04/30 17:42:49;;;;;;;8.1;12.6;;;;;;;-133;44.8;78170;;;;
2022/04/30 17:52:49;;;;;;;8.1;12.6;;;;;;;-133;46.4;78230;;;;
2022/04/30 18:02:49;;;;;;;8.1;12.6;;;;;;;-133;47.9;78310;;;;
2022/04/30 18:13:49;;;;;;;8;10.4;;;;;;;-133;48.9;78360;;;;
2022/04/30 18:23:49;;;;;;;8;10.4;;;;;;;-133;51;78430;;;;
2022/04/30 18:34:49;;;;;;;8;10.4;;;;;;;-133;51.6;78490;;;;
2022/04/30 18:44:49;;;;;;;8.7;12.4;;;;;;;-133;53.9;78540;;;;
2022/04/30 19:04:49;;;;;;;8.7;12.4;;;;;;;-133;56.4;78620;;;;
2022/04/30 19:15:49;;;;;;;34.9;45.8;;;;;;;-133;58.3;78670;;;;
2022/04/30 19:26:50;;;;;;;34.9;45.8;;;;;;;-133;58.5;78700;;;;
2022/04/30 19:36:49;;;;;;;34.9;45.8;;;;;;;-133;60.3;78720;;;;
2022/04/30 19:46:50;;;;;;;21.8;29.4;;;;;;;-133;60.1;78750;;;;
2022/04/30 19:57:50;;;;;;;21.8;29.4;;;;;;;-133;62.3;78760;;;;
2022/04/30 20:08:49;;;;;;;19;22.8;;;;;;;-133;61.9;78780;;;;
2022/04/30 20:19:51;;;;;;;19;22.8;;;;;;;-133;61.8;78790;;;;
2022/04/30 20:29:49;;;;;;;19;22.8;;;;;;;-133;62.9;78830;;;;
2022/04/30 20:39:50;;;;;;;21.9;27.6;;;;;;;-133;63.2;78870;;;;
2022/04/30 20:50:51;;;;;;;21.9;27.6;;;;;;;-133;65.3;78910;;;;
2022/04/30 21:01:50;;;;;;;21.9;27.6;;;;;;;-133;67.9;78960;;;;
2022/04/30 21:11:49;;;;;;;36.6;43.9;;;;;;;-133;68.1;78990;;;;
2022/04/30 21:22:50;;;;;;;36.6;43.9;;;;;;;-133;71.1;79020;;;;
2022/04/30 21:33:49;;;;;;;36.6;43.9;;;;;;;-133;71.2;79040;;;;
2022/04/30 21:43:49;;;;;;;32.7;42.1;;;;;;;-133;70.3;79060;;;;
2022/04/30 22:04:49;;;;;;;32.7;42.1;;;;;;;-133;72.9;79120;;;;
2022/04/30 22:14:50;;;;;;;44.9;56;;;;;;;-133;74.4;79140;;;;
2022/04/30 22:24:49;;;;;;;44.9;56;;;;;;;-133;75.7;79140;;;;
2022/04/30 22:34:49;;;;;;;44.9;56;;;;;;;-133;74.8;79170;;;;
2022/04/30 22:45:49;;;;;;;55.2;72.3;;;;;;;-133;76.2;79190;;;;
2022/04/30 22:56:50;;;;;;;55.2;72.3;;;;;;;-133;76.8;79210;;;;
2022/04/30 23:06:49;;;;;;;55.2;72.3;;;;;;;-133;80.2;79210;;;;
2022/04/30 23:16:49;;;;;;;39.6;52.8;;;;;;;-133;81.4;79230;;;;
2022/04/30 23:26:50;;;;;;;39.6;52.8;;;;;;;-133;84.9;79250;;;;
2022/04/30 23:36:49;;;;;;;39.6;52.8;;;;;;;-133;82.5;79270;;;;
2022/04/30 23:46:49;;;;;;;41.2;50.3;;;;;;;-133;85.8;79290;;;;
2022/04/30 23:56:49;;;;;;;41.2;50.3;;;;;;;-133;85.8;79280;;;;
